createdAt,value
2022-09-02T00:00:26.189Z,13.12
2022-09-02T00:04:27.672Z,13.18
2022-09-02T00:08:31.624Z,13.20
2022-09-02T00:12:33.109Z,13.13
2022-09-02T00:16:34.759Z,13.07
2022-09-02T00:20:36.232Z,13.15
2022-09-02T00:24:38.454Z,13.20
2022-09-02T00:28:49.118Z,13.31
2022-09-02T00:32:57.244Z,13.26
2022-09-02T00:36:59.039Z,13.31
2022-09-02T00:41:03.963Z,13.39
2022-09-02T00:45:07.541Z,13.46
2022-09-02T00:49:29.968Z,13.26
2022-09-02T00:53:31.820Z,13.45
2022-09-02T00:57:59.683Z,13.56
2022-09-02T01:02:01.599Z,13.63
2022-09-02T01:06:04.417Z,13.44
2022-09-02T01:10:08.878Z,13.49
2022-09-02T01:14:13.650Z,13.28
2022-09-02T01:18:19.302Z,13.39
2022-09-02T01:22:27.215Z,13.55
2022-09-02T01:26:28.763Z,13.73
2022-09-02T01:30:31.836Z,13.52
2022-09-02T01:34:33.336Z,13.63
2022-09-02T01:38:35.050Z,13.65
2022-09-02T01:42:37.661Z,13.60
2022-09-02T01:46:39.223Z,13.02
2022-09-02T01:50:46.990Z,13.54
2022-09-02T01:54:49.018Z,13.43
2022-09-02T01:58:50.484Z,13.57
2022-09-02T02:02:54.493Z,13.39
2022-09-02T02:06:56.009Z,13.41
2022-09-02T02:10:57.447Z,13.46
2022-09-02T02:15:02.203Z,13.29
2022-09-02T02:19:05.466Z,13.33
2022-09-02T02:23:07.653Z,13.25
2022-09-02T02:27:09.112Z,13.16
2022-09-02T02:31:10.767Z,13.05
2022-09-02T02:35:13.079Z,12.92
2022-09-02T02:39:14.694Z,12.93
2022-09-02T02:43:16.958Z,12.84
2022-09-02T02:47:18.472Z,12.79
2022-09-02T02:51:20.211Z,12.64
2022-09-02T02:55:23.662Z,12.59
2022-09-02T02:59:26.307Z,12.60
2022-09-02T03:03:28.469Z,12.35
2022-09-02T03:07:30.123Z,11.98
2022-09-02T03:11:32.020Z,12.27
2022-09-02T03:15:33.644Z,12.11
2022-09-02T03:19:35.147Z,12.00
2022-09-02T03:23:36.942Z,12.00
2022-09-02T03:27:40.088Z,12.12
2022-09-02T03:31:41.631Z,11.95
2022-09-02T03:35:44.683Z,11.55
2022-09-02T03:39:46.324Z,11.87
2022-09-02T03:43:48.519Z,11.73
2022-09-02T03:47:56.456Z,11.55
2022-09-02T03:51:58.122Z,11.68
2022-09-02T03:56:08.658Z,11.63
2022-09-02T04:00:11.896Z,11.71
2022-09-02T04:04:13.660Z,11.72
2022-09-02T04:08:15.093Z,11.10
2022-09-02T04:12:16.550Z,11.26
2022-09-02T04:16:21.535Z,11.15
2022-09-02T04:20:23.101Z,11.16
2022-09-02T04:24:24.809Z,11.58
2022-09-02T04:28:26.280Z,11.48
2022-09-02T04:32:27.756Z,11.53
2022-09-02T04:36:30.899Z,11.54
2022-09-02T04:40:32.574Z,11.61
2022-09-02T04:44:34.123Z,11.67
2022-09-02T04:48:37.277Z,11.65
2022-09-02T04:52:38.787Z,11.79
2022-09-02T04:56:40.323Z,11.78
2022-09-02T05:00:42.993Z,11.85
2022-09-02T05:04:44.455Z,11.76
2022-09-02T05:08:48.003Z,11.50
2022-09-02T05:12:49.521Z,11.30
2022-09-02T05:16:54.462Z,11.51
2022-09-02T05:20:56.024Z,11.68
2022-09-02T05:24:57.560Z,11.92
2022-09-02T05:29:00.850Z,11.99
2022-09-02T05:33:02.446Z,12.04
2022-09-02T05:37:05.275Z,12.28
2022-09-02T05:41:09.025Z,12.27
2022-09-02T05:45:11.386Z,12.30
2022-09-02T05:49:21.473Z,12.40
2022-09-02T05:53:23.032Z,12.41
2022-09-02T05:57:25.520Z,12.77
2022-09-02T06:01:27.073Z,13.02
2022-09-02T06:05:28.658Z,13.17
2022-09-02T06:09:30.121Z,13.30
2022-09-02T06:13:35.209Z,13.19
2022-09-02T06:17:36.764Z,13.35
2022-09-02T06:21:38.883Z,13.12
2022-09-02T06:25:43.033Z,13.46
2022-09-02T06:29:45.960Z,13.58
2022-09-02T06:33:48.719Z,13.37
2022-09-02T06:37:50.218Z,13.60
2022-09-02T06:41:51.806Z,13.92
2022-09-02T06:45:53.427Z,14.04
2022-09-02T06:49:54.949Z,14.08
2022-09-02T06:53:57.020Z,14.19
2022-09-02T06:57:58.698Z,14.54
2022-09-02T07:02:00.379Z,14.49
2022-09-02T07:06:04.718Z,14.69
2022-09-02T07:10:09.987Z,14.61
2022-09-02T07:14:11.503Z,14.42
2022-09-02T07:18:13.047Z,14.43
2022-09-02T07:22:14.665Z,14.38
2022-09-02T07:26:20.575Z,14.57
2022-09-02T07:30:22.533Z,14.69
2022-09-02T07:34:24.658Z,15.05
2022-09-02T07:38:26.112Z,15.37
2022-09-02T07:46:35.910Z,16.01
2022-09-02T07:50:37.926Z,16.34
2022-09-02T07:54:39.477Z,16.47
2022-09-02T07:58:43.082Z,16.60
2022-09-02T08:02:44.772Z,16.68
2022-09-02T08:06:46.614Z,17.01
2022-09-02T08:10:51.201Z,16.86
2022-09-02T08:14:52.698Z,17.42
2022-09-02T08:18:54.583Z,17.69
2022-09-02T08:23:05.846Z,17.46
2022-09-02T08:27:18.948Z,17.84
2022-09-02T08:31:20.929Z,18.11
2022-09-02T08:35:22.537Z,18.42
2022-09-02T08:39:24.552Z,18.82
2022-09-02T08:43:37.358Z,19.10
2022-09-02T08:47:44.077Z,18.93
2022-09-02T08:51:56.157Z,19.18
2022-09-02T08:56:03.632Z,19.29
2022-09-02T09:00:07.432Z,19.47
2022-09-02T09:04:27.512Z,19.60
2022-09-02T09:08:46.724Z,19.66
2022-09-02T09:13:01.168Z,19.52
2022-09-02T09:17:07.459Z,20.01
2022-09-02T09:21:10.410Z,20.43
2022-09-02T09:25:15.697Z,20.54
2022-09-02T09:29:17.143Z,20.57
2022-09-02T09:33:22.526Z,20.42
2022-09-02T09:37:36.187Z,20.86
2022-09-02T09:41:38.145Z,20.22
2022-09-02T09:45:42.425Z,20.38
2022-09-02T09:49:44.025Z,20.94
2022-09-02T09:53:46.117Z,21.33
2022-09-02T09:57:49.383Z,21.57
2022-09-02T10:01:52.018Z,21.64
2022-09-02T10:05:56.037Z,21.84
2022-09-02T10:10:15.581Z,22.07
2022-09-02T10:14:17.894Z,22.47
2022-09-02T10:18:35.364Z,21.94
2022-09-02T10:22:58.462Z,20.97
2022-09-02T10:27:08.784Z,21.93
2022-09-02T10:31:52.008Z,21.15
2022-09-02T10:36:02.446Z,21.19
2022-09-02T10:40:10.029Z,21.85
2022-09-02T10:44:31.132Z,22.42
2022-09-02T10:48:35.445Z,21.92
2022-09-02T10:52:52.535Z,22.71
2022-09-02T10:57:01.934Z,21.36
2022-09-02T11:01:03.968Z,23.10
2022-09-02T11:05:14.005Z,22.92
2022-09-02T11:09:39.184Z,21.80
2022-09-02T11:13:52.562Z,21.36
2022-09-02T11:18:17.884Z,21.15
2022-09-02T11:22:50.571Z,21.15
2022-09-02T11:27:26.303Z,20.92
2022-09-02T11:31:43.452Z,20.56
2022-09-02T11:35:45.040Z,20.57
2022-09-02T11:40:11.771Z,20.40
2022-09-02T11:44:52.714Z,19.97
2022-09-02T11:49:06.914Z,19.79
2022-09-02T11:53:16.132Z,19.59
2022-09-02T11:57:23.866Z,20.00
2022-09-02T12:01:47.505Z,20.08
2022-09-02T12:05:51.533Z,20.21
2022-09-02T12:09:56.429Z,20.35
2022-09-02T12:13:59.982Z,20.65
2022-09-02T12:18:28.440Z,20.94
2022-09-02T12:22:40.670Z,21.01
2022-09-02T12:26:42.973Z,20.77
2022-09-02T12:30:58.859Z,20.57
2022-09-02T12:35:10.743Z,20.74
2022-09-02T12:39:30.728Z,20.32
2022-09-02T12:43:50.704Z,20.70
2022-09-02T12:48:12.606Z,20.52
2022-09-02T12:52:42.506Z,20.52
2022-09-02T12:56:50.064Z,20.70
2022-09-02T13:01:13.318Z,20.83
2022-09-02T13:05:22.322Z,22.90
2022-09-02T13:09:29.431Z,24.00
2022-09-02T13:14:19.680Z,23.68
2022-09-02T13:18:33.283Z,23.45
2022-09-02T13:23:12.146Z,22.88
2022-09-02T13:27:30.776Z,22.30
2022-09-02T13:31:32.427Z,21.93
2022-09-02T13:35:38.106Z,21.58
2022-09-02T13:39:40.724Z,20.95
2022-09-02T13:43:42.571Z,21.06
2022-09-02T13:47:46.866Z,22.11
2022-09-02T13:51:51.425Z,23.10
2022-09-02T13:55:55.522Z,22.99
2022-09-02T13:59:57.757Z,24.24
2022-09-02T14:04:06.367Z,24.44
2022-09-02T14:08:11.885Z,25.37
2022-09-02T14:12:13.886Z,23.33
2022-09-02T14:16:35.515Z,21.96
2022-09-02T14:20:39.027Z,21.54
2022-09-02T14:24:41.135Z,21.83
2022-09-02T14:28:42.606Z,21.76
2022-09-02T14:32:44.103Z,21.58
2022-09-02T14:36:45.603Z,21.15
2022-09-02T14:40:48.087Z,21.40
2022-09-02T14:44:50.057Z,20.82
2022-09-02T14:49:17.638Z,20.44
2022-09-02T14:53:22.937Z,20.28
2022-09-02T14:57:33.250Z,20.23
2022-09-02T15:01:40.151Z,21.35
2022-09-02T15:05:42.235Z,22.29
2022-09-02T15:09:46.000Z,22.80
2022-09-02T15:13:47.491Z,22.19
2022-09-02T15:17:49.003Z,21.58
2022-09-02T15:21:50.930Z,21.05
2022-09-02T15:25:54.261Z,20.69
2022-09-02T15:29:55.793Z,20.48
2022-09-02T15:33:57.485Z,19.91
2022-09-02T15:37:59.109Z,19.85
2022-09-02T15:42:00.628Z,19.87
2022-09-02T15:46:02.183Z,20.15
2022-09-02T15:50:07.443Z,20.32
2022-09-02T15:54:11.299Z,20.88
2022-09-02T15:58:16.999Z,21.12
2022-09-02T16:02:18.635Z,21.38
2022-09-02T16:06:20.152Z,21.13
2022-09-02T16:10:21.650Z,20.55
2022-09-02T16:14:24.599Z,19.79
2022-09-02T16:18:26.041Z,19.88
2022-09-02T16:22:27.652Z,19.49
2022-09-02T16:26:34.024Z,19.96
2022-09-02T16:30:35.487Z,20.50
2022-09-02T16:38:38.359Z,21.09
2022-09-02T16:42:39.953Z,21.08
2022-09-02T16:46:42.527Z,21.74
2022-09-02T16:50:43.979Z,21.08
2022-09-02T16:54:45.572Z,21.02
2022-09-02T16:58:47.098Z,20.22
2022-09-02T17:02:48.901Z,19.85
2022-09-02T17:06:50.462Z,19.72
2022-09-02T17:10:51.908Z,19.70
2022-09-02T17:14:53.383Z,19.73
2022-09-02T17:18:55.365Z,19.76
2022-09-02T17:22:57.028Z,19.41
2022-09-02T17:27:00.610Z,19.41
2022-09-02T17:31:05.308Z,19.29
2022-09-02T17:35:09.495Z,19.26
2022-09-02T17:39:13.921Z,18.96
2022-09-02T17:43:15.792Z,18.86
2022-09-02T17:47:20.440Z,18.86
2022-09-02T17:51:21.970Z,18.71
2022-09-02T17:55:23.787Z,18.45
2022-09-02T17:59:46.934Z,18.29
2022-09-02T18:04:05.848Z,18.00
2022-09-02T18:08:31.697Z,18.11
2022-09-02T18:12:36.647Z,17.97
2022-09-02T18:17:13.866Z,17.86
2022-09-02T18:21:30.443Z,17.86
2022-09-02T18:25:44.207Z,17.50
2022-09-02T18:29:55.176Z,17.24
2022-09-02T18:34:05.731Z,17.15
2022-09-02T18:38:38.684Z,17.32
2022-09-02T18:43:13.989Z,17.24
2022-09-02T18:47:23.291Z,16.91
2022-09-02T18:51:35.632Z,16.80
2022-09-02T18:55:39.278Z,16.91
2022-09-02T19:00:01.628Z,16.70
2022-09-02T19:04:04.344Z,16.85
2022-09-02T19:08:35.008Z,16.61
2022-09-02T19:12:38.006Z,16.59
2022-09-02T19:16:39.600Z,16.32
2022-09-02T19:20:41.549Z,16.39
2022-09-02T19:24:47.821Z,16.10
2022-09-02T19:28:50.850Z,16.24
2022-09-02T19:32:59.226Z,16.10
2022-09-02T19:37:01.082Z,15.97
2022-09-02T19:41:02.622Z,16.07
2022-09-02T19:45:04.278Z,16.20
2022-09-02T19:49:05.751Z,15.80
2022-09-02T19:53:08.783Z,15.98
2022-09-02T19:57:10.238Z,15.73
2022-09-02T20:01:11.704Z,15.54
2022-09-02T20:05:14.107Z,15.63
2022-09-02T20:09:15.603Z,15.64
2022-09-02T20:13:18.576Z,15.38
2022-09-02T20:17:21.852Z,15.23
2022-09-02T20:21:27.392Z,15.29
2022-09-02T20:25:43.938Z,15.17
2022-09-02T20:30:11.627Z,15.18
2022-09-02T20:34:45.216Z,15.15
2022-09-02T20:39:03.969Z,14.99
2022-09-02T20:43:28.247Z,14.98
2022-09-02T20:47:42.590Z,14.98
2022-09-02T20:51:54.901Z,15.00
2022-09-02T20:56:07.906Z,14.87
2022-09-02T21:00:12.419Z,14.94
2022-09-02T21:04:34.788Z,15.10
2022-09-02T21:08:48.970Z,15.25
2022-09-02T21:13:17.187Z,15.31
2022-09-02T21:17:33.314Z,15.35
2022-09-02T21:21:37.895Z,14.96
2022-09-02T21:25:52.790Z,15.02
2022-09-02T21:30:09.729Z,15.03
2022-09-02T21:34:20.275Z,14.91
2022-09-02T21:38:42.669Z,15.02
2022-09-02T21:43:19.445Z,15.07
2022-09-02T21:47:31.193Z,14.78
2022-09-02T21:51:37.000Z,14.79
2022-09-02T21:55:50.206Z,14.95
2022-09-02T22:00:09.264Z,14.50
2022-09-02T22:04:25.018Z,14.41
2022-09-02T22:08:40.229Z,14.30
2022-09-02T22:12:50.142Z,14.21
2022-09-02T22:17:08.394Z,14.05
2022-09-02T22:21:31.057Z,14.11
2022-09-02T22:25:37.929Z,13.88
2022-09-02T22:29:57.074Z,13.65
2022-09-02T22:34:03.834Z,13.76
2022-09-02T22:38:10.717Z,13.63
2022-09-02T22:42:20.046Z,13.59
2022-09-02T22:46:45.981Z,13.80
2022-09-02T22:51:15.078Z,13.79
2022-09-02T22:55:27.161Z,13.33
2022-09-02T22:59:48.049Z,13.16
2022-09-02T23:04:07.103Z,13.33
2022-09-02T23:08:09.624Z,13.14
2022-09-02T23:12:36.776Z,13.11
2022-09-02T23:17:08.996Z,13.05
2022-09-02T23:21:26.120Z,13.20
2022-09-02T23:25:56.746Z,12.98
2022-09-02T23:29:58.124Z,12.84
2022-09-02T23:34:06.864Z,12.92
2022-09-02T23:38:38.424Z,12.89
2022-09-02T23:42:40.205Z,12.96
2022-09-02T23:46:58.048Z,12.74
2022-09-02T23:51:17.787Z,12.98
2022-09-02T23:55:43.718Z,12.98
